sensor_id;sensor_type;location;lat;lon;timestamp;P1;durP1;ratioP1;P2;durP2;ratioP2
74577;SDS011;63173;49.086;33.418;2023-04-01T00:01:09;30.70;;;8.65;;
74577;SDS011;63173;49.086;33.418;2023-04-01T00:03:39;22.40;;;9.05;;
74577;SDS011;63173;49.086;33.418;2023-04-01T00:06:04;27.98;;;8.73;;
74577;SDS011;63173;49.086;33.418;2023-04-01T00:08:30;27.02;;;8.55;;
74577;SDS011;63173;49.086;33.418;2023-04-01T00:10:56;29.95;;;8.63;;
74577;SDS011;63173;49.086;33.418;2023-04-01T00:13:22;18.73;;;7.45;;
74577;SDS011;63173;49.086;33.418;2023-04-01T00:15:48;27.05;;;7.80;;
74577;SDS011;63173;49.086;33.418;2023-04-01T00:18:14;20.70;;;7.80;;
74577;SDS011;63173;49.086;33.418;2023-04-01T00:20:43;24.70;;;8.10;;
74577;SDS011;63173;49.086;33.418;2023-04-01T00:23:09;22.15;;;7.35;;
74577;SDS011;63173;49.086;33.418;2023-04-01T00:25:35;19.58;;;7.97;;
74577;SDS011;63173;49.086;33.418;2023-04-01T00:28:01;18.15;;;7.35;;
74577;SDS011;63173;49.086;33.418;2023-04-01T00:30:26;18.58;;;7.38;;
74577;SDS011;63173;49.086;33.418;2023-04-01T00:32:52;23.80;;;7.28;;
74577;SDS011;63173;49.086;33.418;2023-04-01T00:35:18;22.10;;;8.00;;
74577;SDS011;63173;49.086;33.418;2023-04-01T00:37:43;24.10;;;7.00;;
74577;SDS011;63173;49.086;33.418;2023-04-01T00:40:11;20.08;;;7.13;;
74577;SDS011;63173;49.086;33.418;2023-04-01T00:42:49;15.40;;;6.55;;
74577;SDS011;63173;49.086;33.418;2023-04-01T00:45:23;21.42;;;6.97;;
74577;SDS011;63173;49.086;33.418;2023-04-01T00:47:50;17.27;;;6.53;;
74577;SDS011;63173;49.086;33.418;2023-04-01T00:50:15;16.42;;;7.30;;
74577;SDS011;63173;49.086;33.418;2023-04-01T00:52:41;20.13;;;7.15;;
74577;SDS011;63173;49.086;33.418;2023-04-01T00:55:07;18.25;;;7.50;;
74577;SDS011;63173;49.086;33.418;2023-04-01T00:57:37;19.67;;;7.38;;
74577;SDS011;63173;49.086;33.418;2023-04-01T01:00:06;19.27;;;7.05;;
74577;SDS011;63173;49.086;33.418;2023-04-01T01:02:36;21.48;;;6.95;;
74577;SDS011;63173;49.086;33.418;2023-04-01T01:05:02;23.35;;;7.25;;
74577;SDS011;63173;49.086;33.418;2023-04-01T01:10:29;16.33;;;6.47;;
74577;SDS011;63173;49.086;33.418;2023-04-01T01:29:06;17.70;;;6.97;;
74577;SDS011;63173;49.086;33.418;2023-04-01T01:37:02;19.65;;;7.25;;
74577;SDS011;63173;49.086;33.418;2023-04-01T01:39:32;18.50;;;7.70;;
74577;SDS011;63173;49.086;33.418;2023-04-01T01:42:01;20.15;;;7.00;;
74577;SDS011;63173;49.086;33.418;2023-04-01T01:44:30;20.48;;;7.30;;
74577;SDS011;63173;49.086;33.418;2023-04-01T01:46:59;23.17;;;8.23;;
74577;SDS011;63173;49.086;33.418;2023-04-01T01:49:26;24.27;;;8.20;;
74577;SDS011;63173;49.086;33.418;2023-04-01T01:51:55;25.25;;;9.23;;
74577;SDS011;63173;49.086;33.418;2023-04-01T01:54:21;25.23;;;8.48;;
74577;SDS011;63173;49.086;33.418;2023-04-01T01:56:47;22.92;;;8.85;;
74577;SDS011;63173;49.086;33.418;2023-04-01T01:59:16;19.15;;;8.50;;
74577;SDS011;63173;49.086;33.418;2023-04-01T02:01:46;19.77;;;8.10;;
74577;SDS011;63173;49.086;33.418;2023-04-01T02:04:15;22.08;;;8.35;;
74577;SDS011;63173;49.086;33.418;2023-04-01T02:06:52;21.27;;;8.02;;
74577;SDS011;63173;49.086;33.418;2023-04-01T02:09:21;20.98;;;8.15;;
74577;SDS011;63173;49.086;33.418;2023-04-01T02:11:57;26.63;;;8.75;;
74577;SDS011;63173;49.086;33.418;2023-04-01T02:14:30;22.75;;;9.00;;
74577;SDS011;63173;49.086;33.418;2023-04-01T02:17:20;21.20;;;8.63;;
74577;SDS011;63173;49.086;33.418;2023-04-01T02:22:14;22.55;;;9.20;;
74577;SDS011;63173;49.086;33.418;2023-04-01T02:24:44;25.63;;;9.10;;
74577;SDS011;63173;49.086;33.418;2023-04-01T02:27:10;22.33;;;8.68;;
74577;SDS011;63173;49.086;33.418;2023-04-01T02:29:36;23.55;;;8.80;;
74577;SDS011;63173;49.086;33.418;2023-04-01T02:32:02;28.13;;;9.63;;
74577;SDS011;63173;49.086;33.418;2023-04-01T02:34:28;22.15;;;9.35;;
74577;SDS011;63173;49.086;33.418;2023-04-01T02:36:54;23.52;;;8.48;;
74577;SDS011;63173;49.086;33.418;2023-04-01T02:39:21;27.60;;;9.23;;
74577;SDS011;63173;49.086;33.418;2023-04-01T02:41:46;21.55;;;8.05;;
74577;SDS011;63173;49.086;33.418;2023-04-01T02:44:12;21.63;;;8.00;;
74577;SDS011;63173;49.086;33.418;2023-04-01T02:46:39;24.20;;;8.05;;
74577;SDS011;63173;49.086;33.418;2023-04-01T02:49:05;26.30;;;9.23;;
74577;SDS011;63173;49.086;33.418;2023-04-01T02:51:31;29.48;;;10.05;;
74577;SDS011;63173;49.086;33.418;2023-04-01T02:53:57;32.38;;;9.75;;
74577;SDS011;63173;49.086;33.418;2023-04-01T02:56:22;25.85;;;10.57;;
74577;SDS011;63173;49.086;33.418;2023-04-01T02:58:48;27.58;;;10.13;;
74577;SDS011;63173;49.086;33.418;2023-04-01T03:01:13;26.88;;;9.30;;
74577;SDS011;63173;49.086;33.418;2023-04-01T03:03:39;22.15;;;9.30;;
74577;SDS011;63173;49.086;33.418;2023-04-01T03:06:06;21.30;;;8.45;;
74577;SDS011;63173;49.086;33.418;2023-04-01T03:08:36;21.52;;;8.55;;
74577;SDS011;63173;49.086;33.418;2023-04-01T03:11:01;27.80;;;9.48;;
74577;SDS011;63173;49.086;33.418;2023-04-01T03:13:27;28.45;;;9.77;;
74577;SDS011;63173;49.086;33.418;2023-04-01T03:15:52;30.50;;;9.95;;
74577;SDS011;63173;49.086;33.418;2023-04-01T03:18:18;25.23;;;9.00;;
74577;SDS011;63173;49.086;33.418;2023-04-01T03:20:44;25.90;;;9.30;;
74577;SDS011;63173;49.086;33.418;2023-04-01T03:23:09;27.58;;;9.40;;
74577;SDS011;63173;49.086;33.418;2023-04-01T03:25:35;29.30;;;10.27;;
74577;SDS011;63173;49.086;33.418;2023-04-01T03:28:00;30.65;;;11.18;;
74577;SDS011;63173;49.086;33.418;2023-04-01T03:30:27;34.42;;;10.60;;
74577;SDS011;63173;49.086;33.418;2023-04-01T03:32:54;32.35;;;11.05;;
74577;SDS011;63173;49.086;33.418;2023-04-01T03:35:20;41.55;;;11.20;;
74577;SDS011;63173;49.086;33.418;2023-04-01T03:37:45;33.38;;;10.90;;
74577;SDS011;63173;49.086;33.418;2023-04-01T03:40:11;40.00;;;11.48;;
74577;SDS011;63173;49.086;33.418;2023-04-01T03:42:36;35.00;;;11.30;;
74577;SDS011;63173;49.086;33.418;2023-04-01T03:45:02;38.50;;;11.90;;
74577;SDS011;63173;49.086;33.418;2023-04-01T03:47:29;34.47;;;11.93;;
74577;SDS011;63173;49.086;33.418;2023-04-01T03:49:54;40.25;;;11.98;;
74577;SDS011;63173;49.086;33.418;2023-04-01T03:52:20;32.92;;;11.60;;
74577;SDS011;63173;49.086;33.418;2023-04-01T03:54:45;47.88;;;13.43;;
74577;SDS011;63173;49.086;33.418;2023-04-01T03:57:11;38.97;;;13.00;;
74577;SDS011;63173;49.086;33.418;2023-04-01T03:59:36;45.20;;;12.25;;
74577;SDS011;63173;49.086;33.418;2023-04-01T04:02:02;40.45;;;12.10;;
74577;SDS011;63173;49.086;33.418;2023-04-01T04:04:28;40.47;;;12.02;;
74577;SDS011;63173;49.086;33.418;2023-04-01T04:06:54;38.85;;;12.30;;
74577;SDS011;63173;49.086;33.418;2023-04-01T04:09:19;38.60;;;11.93;;
74577;SDS011;63173;49.086;33.418;2023-04-01T04:11:45;34.38;;;12.60;;
74577;SDS011;63173;49.086;33.418;2023-04-01T04:14:11;41.60;;;12.77;;
74577;SDS011;63173;49.086;33.418;2023-04-01T04:16:36;43.15;;;13.48;;
74577;SDS011;63173;49.086;33.418;2023-04-01T04:19:02;49.53;;;13.13;;
74577;SDS011;63173;49.086;33.418;2023-04-01T04:21:28;41.72;;;12.48;;
74577;SDS011;63173;49.086;33.418;2023-04-01T04:23:54;38.47;;;12.82;;
74577;SDS011;63173;49.086;33.418;2023-04-01T04:26:19;44.22;;;13.07;;
74577;SDS011;63173;49.086;33.418;2023-04-01T04:28:45;40.60;;;13.57;;
74577;SDS011;63173;49.086;33.418;2023-04-01T04:31:10;49.45;;;14.13;;
74577;SDS011;63173;49.086;33.418;2023-04-01T04:33:36;45.47;;;12.73;;
74577;SDS011;63173;49.086;33.418;2023-04-01T04:36:02;39.90;;;11.98;;
74577;SDS011;63173;49.086;33.418;2023-04-01T04:38:28;46.33;;;13.43;;
74577;SDS011;63173;49.086;33.418;2023-04-01T04:40:54;37.83;;;12.52;;
74577;SDS011;63173;49.086;33.418;2023-04-01T04:43:20;37.25;;;12.85;;
74577;SDS011;63173;49.086;33.418;2023-04-01T04:45:46;40.45;;;13.80;;
74577;SDS011;63173;49.086;33.418;2023-04-01T04:48:12;40.85;;;13.20;;
74577;SDS011;63173;49.086;33.418;2023-04-01T04:50:43;36.67;;;13.68;;
74577;SDS011;63173;49.086;33.418;2023-04-01T04:53:09;43.60;;;12.55;;
74577;SDS011;63173;49.086;33.418;2023-04-01T04:55:42;48.22;;;13.68;;
74577;SDS011;63173;49.086;33.418;2023-04-01T04:58:09;41.15;;;11.88;;
74577;SDS011;63173;49.086;33.418;2023-04-01T05:00:34;46.38;;;13.98;;
74577;SDS011;63173;49.086;33.418;2023-04-01T05:03:00;43.00;;;12.95;;
74577;SDS011;63173;49.086;33.418;2023-04-01T05:05:25;40.13;;;14.23;;
74577;SDS011;63173;49.086;33.418;2023-04-01T05:07:51;45.47;;;14.00;;
74577;SDS011;63173;49.086;33.418;2023-04-01T05:10:16;42.47;;;13.55;;
74577;SDS011;63173;49.086;33.418;2023-04-01T05:12:42;44.03;;;14.88;;
74577;SDS011;63173;49.086;33.418;2023-04-01T05:15:07;39.63;;;14.23;;
74577;SDS011;63173;49.086;33.418;2023-04-01T05:17:33;43.58;;;15.55;;
74577;SDS011;63173;49.086;33.418;2023-04-01T05:19:59;44.35;;;15.57;;
74577;SDS011;63173;49.086;33.418;2023-04-01T05:22:24;48.50;;;17.75;;
74577;SDS011;63173;49.086;33.418;2023-04-01T05:24:50;43.03;;;14.80;;
74577;SDS011;63173;49.086;33.418;2023-04-01T05:27:16;41.50;;;16.05;;
74577;SDS011;63173;49.086;33.418;2023-04-01T05:29:41;42.60;;;14.25;;
74577;SDS011;63173;49.086;33.418;2023-04-01T05:32:07;41.03;;;15.65;;
74577;SDS011;63173;49.086;33.418;2023-04-01T05:34:32;43.75;;;15.05;;
74577;SDS011;63173;49.086;33.418;2023-04-01T05:36:58;41.15;;;15.10;;
74577;SDS011;63173;49.086;33.418;2023-04-01T05:39:23;44.42;;;14.93;;
74577;SDS011;63173;49.086;33.418;2023-04-01T05:41:49;30.02;;;12.80;;
74577;SDS011;63173;49.086;33.418;2023-04-01T05:44:14;42.20;;;14.68;;
74577;SDS011;63173;49.086;33.418;2023-04-01T05:46:40;33.08;;;13.88;;
74577;SDS011;63173;49.086;33.418;2023-04-01T05:49:06;37.28;;;13.60;;
74577;SDS011;63173;49.086;33.418;2023-04-01T05:51:31;35.80;;;14.25;;
74577;SDS011;63173;49.086;33.418;2023-04-01T05:53:58;44.00;;;17.05;;
74577;SDS011;63173;49.086;33.418;2023-04-01T05:56:23;38.90;;;13.88;;
74577;SDS011;63173;49.086;33.418;2023-04-01T05:58:50;32.70;;;12.38;;
74577;SDS011;63173;49.086;33.418;2023-04-01T06:01:16;29.10;;;13.02;;
74577;SDS011;63173;49.086;33.418;2023-04-01T06:03:43;34.40;;;13.30;;
74577;SDS011;63173;49.086;33.418;2023-04-01T06:06:11;36.38;;;14.77;;
74577;SDS011;63173;49.086;33.418;2023-04-01T06:08:40;36.55;;;14.45;;
74577;SDS011;63173;49.086;33.418;2023-04-01T06:14:07;38.67;;;15.48;;
74577;SDS011;63173;49.086;33.418;2023-04-01T06:22:49;39.80;;;15.20;;
74577;SDS011;63173;49.086;33.418;2023-04-01T06:25:38;37.08;;;13.68;;
74577;SDS011;63173;49.086;33.418;2023-04-01T06:34:08;35.35;;;14.05;;
74577;SDS011;63173;49.086;33.418;2023-04-01T06:46:58;32.07;;;13.97;;
74577;SDS011;63173;49.086;33.418;2023-04-01T06:54:48;29.23;;;13.35;;
74577;SDS011;63173;49.086;33.418;2023-04-01T07:02:48;29.95;;;13.68;;
74577;SDS011;63173;49.086;33.418;2023-04-01T07:05:20;31.90;;;13.13;;
74577;SDS011;63173;49.086;33.418;2023-04-01T07:07:48;29.75;;;14.43;;
74577;SDS011;63173;49.086;33.418;2023-04-01T07:10:28;29.65;;;14.30;;
74577;SDS011;63173;49.086;33.418;2023-04-01T07:13:19;28.88;;;11.60;;
74577;SDS011;63173;49.086;33.418;2023-04-01T07:19:24;34.85;;;14.63;;
74577;SDS011;63173;49.086;33.418;2023-04-01T07:21:55;24.73;;;11.50;;
74577;SDS011;63173;49.086;33.418;2023-04-01T07:24:26;28.27;;;12.95;;
74577;SDS011;63173;49.086;33.418;2023-04-01T07:26:55;24.95;;;11.57;;
74577;SDS011;63173;49.086;33.418;2023-04-01T07:29:22;28.55;;;13.20;;
74577;SDS011;63173;49.086;33.418;2023-04-01T07:34:44;29.42;;;13.43;;
74577;SDS011;63173;49.086;33.418;2023-04-01T07:37:21;26.77;;;11.75;;
74577;SDS011;63173;49.086;33.418;2023-04-01T07:47:55;29.08;;;11.75;;
74577;SDS011;63173;49.086;33.418;2023-04-01T07:50:40;23.17;;;11.82;;
74577;SDS011;63173;49.086;33.418;2023-04-01T07:53:26;25.08;;;11.38;;
74577;SDS011;63173;49.086;33.418;2023-04-01T07:56:05;29.00;;;12.82;;
74577;SDS011;63173;49.086;33.418;2023-04-01T07:58:38;26.48;;;12.15;;
74577;SDS011;63173;49.086;33.418;2023-04-01T08:07:04;21.83;;;11.20;;
74577;SDS011;63173;49.086;33.418;2023-04-01T08:22:53;20.65;;;10.77;;
74577;SDS011;63173;49.086;33.418;2023-04-01T08:25:26;22.30;;;10.88;;
74577;SDS011;63173;49.086;33.418;2023-04-01T08:27:56;18.15;;;9.23;;
74577;SDS011;63173;49.086;33.418;2023-04-01T08:30:50;20.85;;;9.82;;
74577;SDS011;63173;49.086;33.418;2023-04-01T08:33:27;23.70;;;11.15;;
74577;SDS011;63173;49.086;33.418;2023-04-01T08:36:05;21.13;;;10.50;;
74577;SDS011;63173;49.086;33.418;2023-04-01T08:38:44;21.15;;;10.15;;
74577;SDS011;63173;49.086;33.418;2023-04-01T08:48:17;20.60;;;9.52;;
74577;SDS011;63173;49.086;33.418;2023-04-01T08:59:40;23.10;;;10.10;;
74577;SDS011;63173;49.086;33.418;2023-04-01T09:02:16;22.55;;;11.73;;
74577;SDS011;63173;49.086;33.418;2023-04-01T09:10:59;22.77;;;10.23;;
74577;SDS011;63173;49.086;33.418;2023-04-01T09:19:28;16.92;;;8.73;;
74577;SDS011;63173;49.086;33.418;2023-04-01T09:22:33;24.58;;;11.50;;
74577;SDS011;63173;49.086;33.418;2023-04-01T09:27:28;24.13;;;9.90;;
74577;SDS011;63173;49.086;33.418;2023-04-01T09:35:38;19.83;;;9.07;;
74577;SDS011;63173;49.086;33.418;2023-04-01T09:38:21;17.55;;;8.73;;
74577;SDS011;63173;49.086;33.418;2023-04-01T09:43:25;17.70;;;8.37;;
74577;SDS011;63173;49.086;33.418;2023-04-01T09:49:25;18.45;;;8.13;;
74577;SDS011;63173;49.086;33.418;2023-04-01T09:52:10;14.18;;;7.40;;
74577;SDS011;63173;49.086;33.418;2023-04-01T09:57:48;17.48;;;8.40;;
74577;SDS011;63173;49.086;33.418;2023-04-01T10:47:39;11.32;;;5.50;;
74577;SDS011;63173;49.086;33.418;2023-04-01T11:13:05;9.77;;;4.70;;
74577;SDS011;63173;49.086;33.418;2023-04-01T11:20:58;10.63;;;4.43;;
74577;SDS011;63173;49.086;33.418;2023-04-01T11:26:40;9.95;;;5.38;;
74577;SDS011;63173;49.086;33.418;2023-04-01T11:29:26;7.68;;;4.53;;
74577;SDS011;63173;49.086;33.418;2023-04-01T11:40:25;26.67;;;6.63;;
74577;SDS011;63173;49.086;33.418;2023-04-01T11:46:29;11.60;;;6.90;;
74577;SDS011;63173;49.086;33.418;2023-04-01T12:22:54;25.98;;;12.68;;
74577;SDS011;63173;49.086;33.418;2023-04-01T12:30:45;25.98;;;13.35;;
74577;SDS011;63173;49.086;33.418;2023-04-01T12:33:37;22.60;;;12.98;;
74577;SDS011;63173;49.086;33.418;2023-04-01T12:45:02;19.10;;;9.60;;
74577;SDS011;63173;49.086;33.418;2023-04-01T13:12:05;23.77;;;12.98;;
74577;SDS011;63173;49.086;33.418;2023-04-01T13:17:33;23.40;;;13.50;;
74577;SDS011;63173;49.086;33.418;2023-04-01T13:20:54;25.95;;;13.70;;
74577;SDS011;63173;49.086;33.418;2023-04-01T13:38:41;24.90;;;13.10;;
74577;SDS011;63173;49.086;33.418;2023-04-01T13:43:25;25.90;;;13.50;;
74577;SDS011;63173;49.086;33.418;2023-04-01T14:02:05;24.83;;;12.90;;
74577;SDS011;63173;49.086;33.418;2023-04-01T14:05:15;28.63;;;12.32;;
74577;SDS011;63173;49.086;33.418;2023-04-01T14:11:15;22.95;;;11.38;;
74577;SDS011;63173;49.086;33.418;2023-04-01T14:27:51;21.52;;;10.63;;
74577;SDS011;63173;49.086;33.418;2023-04-01T14:30:35;20.85;;;10.57;;
74577;SDS011;63173;49.086;33.418;2023-04-01T14:50:16;20.80;;;10.75;;
74577;SDS011;63173;49.086;33.418;2023-04-01T14:55:34;21.20;;;10.35;;
74577;SDS011;63173;49.086;33.418;2023-04-01T15:00:46;21.67;;;11.07;;
74577;SDS011;63173;49.086;33.418;2023-04-01T15:03:24;22.38;;;12.02;;
74577;SDS011;63173;49.086;33.418;2023-04-01T15:14:09;18.98;;;10.10;;
74577;SDS011;63173;49.086;33.418;2023-04-01T15:19:23;19.58;;;9.65;;
74577;SDS011;63173;49.086;33.418;2023-04-01T15:38:52;29.15;;;13.43;;
74577;SDS011;63173;49.086;33.418;2023-04-01T15:41:29;27.13;;;12.63;;
74577;SDS011;63173;49.086;33.418;2023-04-01T15:44:04;29.00;;;14.05;;
74577;SDS011;63173;49.086;33.418;2023-04-01T15:46:50;30.02;;;13.85;;
74577;SDS011;63173;49.086;33.418;2023-04-01T16:00:15;34.22;;;13.85;;
74577;SDS011;63173;49.086;33.418;2023-04-01T16:08:46;33.63;;;15.10;;
74577;SDS011;63173;49.086;33.418;2023-04-01T16:22:37;40.50;;;17.02;;
74577;SDS011;63173;49.086;33.418;2023-04-01T16:25:17;40.63;;;17.77;;
74577;SDS011;63173;49.086;33.418;2023-04-01T16:27:46;40.35;;;17.15;;
74577;SDS011;63173;49.086;33.418;2023-04-01T16:30:26;42.53;;;17.20;;
74577;SDS011;63173;49.086;33.418;2023-04-01T16:33:15;39.25;;;16.58;;
74577;SDS011;63173;49.086;33.418;2023-04-01T16:39:06;39.47;;;15.80;;
74577;SDS011;63173;49.086;33.418;2023-04-01T16:41:36;35.22;;;15.07;;
74577;SDS011;63173;49.086;33.418;2023-04-01T16:44:25;38.53;;;16.60;;
74577;SDS011;63173;49.086;33.418;2023-04-01T16:46:53;41.92;;;18.10;;
74577;SDS011;63173;49.086;33.418;2023-04-01T16:51:54;39.67;;;17.77;;
74577;SDS011;63173;49.086;33.418;2023-04-01T16:54:43;42.65;;;17.10;;
74577;SDS011;63173;49.086;33.418;2023-04-01T16:57:28;38.20;;;16.08;;
74577;SDS011;63173;49.086;33.418;2023-04-01T17:00:24;43.85;;;15.90;;
74577;SDS011;63173;49.086;33.418;2023-04-01T17:05:38;37.88;;;15.63;;
74577;SDS011;63173;49.086;33.418;2023-04-01T17:08:08;43.47;;;17.65;;
74577;SDS011;63173;49.086;33.418;2023-04-01T17:16:10;35.85;;;15.13;;
74577;SDS011;63173;49.086;33.418;2023-04-01T17:27:08;30.00;;;12.48;;
74577;SDS011;63173;49.086;33.418;2023-04-01T17:35:49;26.13;;;11.13;;
74577;SDS011;63173;49.086;33.418;2023-04-01T17:54:41;24.05;;;11.00;;
74577;SDS011;63173;49.086;33.418;2023-04-01T18:11:48;26.70;;;8.90;;
74577;SDS011;63173;49.086;33.418;2023-04-01T18:17:12;23.48;;;9.35;;
74577;SDS011;63173;49.086;33.418;2023-04-01T18:22:59;18.80;;;8.82;;
74577;SDS011;63173;49.086;33.418;2023-04-01T18:25:37;20.33;;;8.98;;
74577;SDS011;63173;49.086;33.418;2023-04-01T18:30:40;15.85;;;8.45;;
74577;SDS011;63173;49.086;33.418;2023-04-01T18:36:13;23.77;;;9.85;;
74577;SDS011;63173;49.086;33.418;2023-04-01T18:38:46;21.38;;;8.90;;
74577;SDS011;63173;49.086;33.418;2023-04-01T18:41:32;23.98;;;8.90;;
74577;SDS011;63173;49.086;33.418;2023-04-01T18:44:22;20.10;;;8.68;;
74577;SDS011;63173;49.086;33.418;2023-04-01T18:47:30;18.67;;;8.48;;
74577;SDS011;63173;49.086;33.418;2023-04-01T18:55:56;20.77;;;9.55;;
74577;SDS011;63173;49.086;33.418;2023-04-01T18:58:34;19.77;;;7.93;;
74577;SDS011;63173;49.086;33.418;2023-04-01T19:06:57;19.83;;;7.78;;
74577;SDS011;63173;49.086;33.418;2023-04-01T19:09:42;18.85;;;8.38;;
74577;SDS011;63173;49.086;33.418;2023-04-01T19:12:31;17.80;;;7.45;;
74577;SDS011;63173;49.086;33.418;2023-04-01T19:20:26;20.17;;;8.45;;
74577;SDS011;63173;49.086;33.418;2023-04-01T19:25:29;21.95;;;8.43;;
74577;SDS011;63173;49.086;33.418;2023-04-01T19:38:57;17.58;;;7.43;;
74577;SDS011;63173;49.086;33.418;2023-04-01T19:41:50;13.05;;;7.15;;
74577;SDS011;63173;49.086;33.418;2023-04-01T19:47:24;17.08;;;7.32;;
74577;SDS011;63173;49.086;33.418;2023-04-01T19:52:55;24.05;;;7.60;;
74577;SDS011;63173;49.086;33.418;2023-04-01T19:55:35;16.42;;;7.15;;
74577;SDS011;63173;49.086;33.418;2023-04-01T20:00:57;14.38;;;6.95;;
74577;SDS011;63173;49.086;33.418;2023-04-01T20:06:14;19.00;;;7.20;;
74577;SDS011;63173;49.086;33.418;2023-04-01T20:09:58;19.73;;;7.35;;
74577;SDS011;63173;49.086;33.418;2023-04-01T20:12:13;19.60;;;6.93;;
74577;SDS011;63173;49.086;33.418;2023-04-01T20:14:52;17.33;;;6.90;;
74577;SDS011;63173;49.086;33.418;2023-04-01T20:17:22;16.80;;;6.30;;
74577;SDS011;63173;49.086;33.418;2023-04-01T20:50:24;10.10;;;4.93;;
74577;SDS011;63173;49.086;33.418;2023-04-01T20:58:42;18.05;;;5.68;;
74577;SDS011;63173;49.086;33.418;2023-04-01T21:01:33;11.05;;;4.55;;
74577;SDS011;63173;49.086;33.418;2023-04-01T21:07:18;18.02;;;4.78;;
74577;SDS011;63173;49.086;33.418;2023-04-01T21:09:55;17.52;;;4.88;;
74577;SDS011;63173;49.086;33.418;2023-04-01T21:12:45;14.80;;;4.85;;
74577;SDS011;63173;49.086;33.418;2023-04-01T21:15:25;13.15;;;5.20;;
74577;SDS011;63173;49.086;33.418;2023-04-01T21:18:40;15.80;;;5.32;;
74577;SDS011;63173;49.086;33.418;2023-04-01T21:29:33;17.63;;;5.65;;
74577;SDS011;63173;49.086;33.418;2023-04-01T22:05:21;36.13;;;14.27;;
74577;SDS011;63173;49.086;33.418;2023-04-01T22:08:20;17.73;;;5.25;;
74577;SDS011;63173;49.086;33.418;2023-04-01T22:10:54;13.57;;;5.00;;
74577;SDS011;63173;49.086;33.418;2023-04-01T22:16:22;17.98;;;5.88;;
74577;SDS011;63173;49.086;33.418;2023-04-01T22:22:16;14.27;;;4.93;;
74577;SDS011;63173;49.086;33.418;2023-04-01T22:27:40;16.42;;;5.20;;
74577;SDS011;63173;49.086;33.418;2023-04-01T22:32:50;19.45;;;5.32;;
74577;SDS011;63173;49.086;33.418;2023-04-01T22:43:08;16.33;;;5.65;;
74577;SDS011;63173;49.086;33.418;2023-04-01T22:48:41;20.00;;;5.28;;
74577;SDS011;63173;49.086;33.418;2023-04-01T22:54:14;18.98;;;5.00;;
74577;SDS011;63173;49.086;33.418;2023-04-01T22:57:03;12.30;;;4.63;;
74577;SDS011;63173;49.086;33.418;2023-04-01T22:59:37;15.75;;;5.07;;
74577;SDS011;63173;49.086;33.418;2023-04-01T23:02:24;10.52;;;4.55;;
74577;SDS011;63173;49.086;33.418;2023-04-01T23:04:57;12.80;;;4.50;;
74577;SDS011;63173;49.086;33.418;2023-04-01T23:07:35;13.40;;;4.55;;
74577;SDS011;63173;49.086;33.418;2023-04-01T23:10:21;17.27;;;5.05;;
74577;SDS011;63173;49.086;33.418;2023-04-01T23:12:51;10.50;;;4.30;;
74577;SDS011;63173;49.086;33.418;2023-04-01T23:15:19;16.67;;;4.85;;
74577;SDS011;63173;49.086;33.418;2023-04-01T23:17:47;14.82;;;5.07;;
74577;SDS011;63173;49.086;33.418;2023-04-01T23:20:20;13.55;;;4.75;;
74577;SDS011;63173;49.086;33.418;2023-04-01T23:28:23;15.75;;;5.00;;
74577;SDS011;63173;49.086;33.418;2023-04-01T23:31:02;17.75;;;4.72;;
74577;SDS011;63173;49.086;33.418;2023-04-01T23:33:28;13.60;;;4.55;;
74577;SDS011;63173;49.086;33.418;2023-04-01T23:36:16;17.30;;;5.25;;
74577;SDS011;63173;49.086;33.418;2023-04-01T23:38:41;20.10;;;5.60;;
74577;SDS011;63173;49.086;33.418;2023-04-01T23:41:18;16.67;;;5.22;;
74577;SDS011;63173;49.086;33.418;2023-04-01T23:43:49;13.25;;;5.20;;
74577;SDS011;63173;49.086;33.418;2023-04-01T23:46:23;16.60;;;4.85;;
74577;SDS011;63173;49.086;33.418;2023-04-01T23:48:50;19.30;;;5.20;;
74577;SDS011;63173;49.086;33.418;2023-04-01T23:51:22;17.27;;;5.07;;
74577;SDS011;63173;49.086;33.418;2023-04-01T23:54:26;15.80;;;4.80;;
74577;SDS011;63173;49.086;33.418;2023-04-01T23:56:50;13.77;;;5.10;;
74577;SDS011;63173;49.086;33.418;2023-04-01T23:59:27;15.23;;;4.55;;
